首页
METAR-TAF:

METAR-TAF

机场 :

Charlotte County Airport

Punta Gorda, 佛罗里达州, 美国

纬度: 26-55-04N, 经度: 081-59-37W, 海拔: 7米

当前天气观测

该预报发布于44分钟前的16:53 UTC
风速9节,风向北转东北
温度 35°C
湿度 53%
气压 1019 hPa
能見度: 16.1公里
散云层高于3600英尺

METAR: KPGD 211653Z 03009KT 10SM SCT036 35/24 A3008 RMK AO2 SLP183 T03500239

时间: 13:37 (17:37 UTC)

预报

该预报发布于6小时和14分钟前的11:23 UTC
预报有效从21日的 12点(UTC)到 22日的 12点(UTC)
风速6节,风向
能見度: 10公里
少量云层高于3000英尺
少量云层高于25000英尺
从 21日的 1900点(UTC)
风速7节,风向东南
能見度: 10公里
散云层高于3500英尺, 积雨云.
散云层高于25000英尺
附近有雷暴
从 22日的 0100点(UTC)
风速3节,风向东转东南
能見度: 10公里
散云层高于3000英尺
多云层高于25000英尺

TAF: KPGD 211123Z 2112/2212 09006KT P6SM FEW030 FEW250 FM211900 14007KT P6SM VCTS SCT035CB SCT250 FM220100 11003KT P6SM SCT030 BKN250

超过4000个机场的气象观测和天气预报(METAR&TAF报告)。

可查询的气象台以黄色和红色小点在地图上表示。

将鼠标移到小点上方,可查看气象台名称。

然后点击查看天气观测和预报。

如需切换地图:点击带黑十字的绿色按钮放大地图;点击带横线的绿色按钮缩小地图;或者点击绿色箭头查看邻近地区的地图。


METAR-TAF: